• Join FlightAware (Why Join?)
  • Login
  • US Flag GB Flag 
10:28 EDT


 

Airport Tracker/Info


-or-


 

Live Flight TrackerFlight Track Log ✈ UAL3589 ✈ 07-May-2013 ✈ KEWR - KMDT

Flight Track Log - Related Links

Times and Time Zones

All times are in EDT time to prevent confusion due to time zone crossing. See the UAL3589 flight status page for this flight to view local times or setup timezone preferences in your user account.

Time Position Orientation Groundspeed Altitude Reporting Facility
EDT Latitude Longitude Course Direction KTS MPH feet Rate Location/Type
21:48 40.6833 -74.1833 201° Southwest 135 155 700  Level New York TRACON
21:49 40.6500 -74.2000 201° Southwest 169 194 2,000 1,380 Climbing New York TRACON
21:50 40.6000 -74.2500 217° Southwest 195 224 3,700 1,380 Climbing New York TRACON
21:51 40.5833 -74.3167 252° West 218 251 4,800 1,260 Climbing New York TRACON
21:52 40.5833 -74.4000 270° West 226 260 6,200 1,380 Climbing New York TRACON
21:53 40.5833 -74.4833 270° West 224 258 7,600 900 Climbing New York TRACON
21:54 40.5833 -74.5667 270° West 246 283 8,100 180 Climbing New York TRACON
21:55 40.5667 -74.6667 258° West 273 314 8,000 -120 Descending New York TRACON
21:57 40.5636 -74.7854 266° West  Level FlightAware Approximate
22:04 40.5545 -75.4011 273° West  Level FlightAware Approximate
22:05 40.5584 -75.4896 273° West  Level FlightAware Approximate
22:06 40.5622 -75.5781 273° West  Level FlightAware Approximate
22:07 40.5660 -75.6666 273° West  Level FlightAware Approximate
22:08 40.5480 -75.7509 250° West  Level FlightAware Approximate
22:09 40.5249 -75.8341 250° West  Level FlightAware Approximate
22:10 40.5018 -75.9173 250° West  Level FlightAware Approximate
22:11 40.4808 -76.0012 259° West  Level FlightAware Approximate
22:12 40.4683 -76.0882 259° West  Level FlightAware Approximate
22:13 40.4481 -76.1725 246° West  Level FlightAware Approximate
22:14 40.4211 -76.2536 246° West  Level FlightAware Approximate
22:15 40.3951 -76.3351 251° West  Level FlightAware Approximate
22:16 40.3728 -76.4185 251° West  Level FlightAware Approximate
22:17 40.3504 -76.5019 251° West  Level FlightAware Approximate
22:18 40.3279 -76.5852 251° West  Level FlightAware Approximate
22:19 40.3055 -76.6684 251° West  Level FlightAware Approximate
22:20 40.2833 -76.7517 270° West  Level FlightAware Approximate
22:21 40.2833 -76.8400 270° West  Level FlightAware Approximate
22:22 40.2833 -76.9283 270° West  Level FlightAware Approximate
22:23 40.2950 -77.0151 281° West  Level FlightAware Approximate
22:24 40.2849 -77.0364 123° Southeast  Level FlightAware Approximate
22:25 40.2534 -76.9585 118° Southeast  Level FlightAware Approximate
22:26 40.2333 -76.8778 90° East  Level FlightAware Approximate
22:27 40.2035 -76.8004 118° Southeast  Level FlightAware Approximate
22:28 40.1932 -76.7626 118° Southeast  Level Estimated